PWSweather.com
Personal Weather Stations
Station Observations
STPETERS
BroadstairsGB

BroadstairsGB

Lat: 51.37, Lon: 1.423

Elevation: 141

Station Type: WH1081

Latest ConditionsUpdated 6:45:03 PM GMT Saturday, Oct 1, 2016
Currently Today's Max Today's Min Today's Average
Temperature 50.4°F10.2°C 57.7°F14.3°C 49.6°F9.8°C 52.9°F11.6°C
Dew Point 46.6°F8.1°C 57.8°F14.3°C 42.2°F5.7°C 50.6°F10.3°C
Winds 4.8 mph WSW7.7 kmh WSW 11.4 mph WNW18.3 kmh WNW - 3.8 mph 6.1 kmh
Wind Gusts 6.9 mph11.1 kmh 18.3 mph29.5 kmh - -
Humidity 87% 100% 70% 92%
Pressure 29.71 in1006.1 mb 29.83 in1010.2 mb 29.69 in1005.4 mb -
Precipitation - 0.47 in11.9 mm - -
Hour Temp Dew Point Humidity Winds Wind Gusts Pressure Precip Precip Rate Daily Precip Total
06:45 PM 50.4°F10.2°C 46.6°F8.1°C 87% 4.8 mph WSW7.7 kmh WSW 6.9 mph11.1 kmh 29.71 in1006.1 mb 0.01 in0.3 mm 0.00 in0.0 mm 0.47 in11.9 mm
06:30 PM 50.2°F10.1°C 46.2°F7.9°C 86% 4.9 mph SSW7.9 kmh SSW 6.9 mph11.1 kmh 29.71 in1006.1 mb 0.01 in0.3 mm 0.04 in1.0 mm 0.47 in11.9 mm
06:15 PM 50.0°F10.0°C 45.7°F7.6°C 85% 3.9 mph SSW6.3 kmh SSW 6.9 mph11.1 kmh 29.71 in1006.1 mb 0.00 in0.0 mm 0.00 in0.0 mm 0.46 in11.7 mm
06:00 PM 50.2°F10.1°C 44.6°F7.0°C 81% 4.0 mph S6.4 kmh S 4.5 mph7.2 kmh 29.71 in1006.1 mb 0.00 in0.0 mm 0.00 in0.0 mm 0.46 in11.7 mm
05:45 PM 50.4°F10.2°C 44.1°F6.7°C 79% 4.0 mph S6.4 kmh S 5.4 mph8.7 kmh 29.71 in1006.1 mb 0.00 in0.0 mm 0.00 in0.0 mm 0.46 in11.7 mm
05:30 PM 50.7°F10.4°C 43.8°F6.6°C 77% 4.0 mph SSW6.4 kmh SSW 6.0 mph9.7 kmh 29.71 in1006.1 mb 0.01 in0.3 mm 0.00 in0.0 mm 0.46 in11.7 mm
05:15 PM 51.3°F10.7°C 44.0°F6.7°C 76% 4.5 mph SSW7.2 kmh SSW 5.4 mph8.7 kmh 29.71 in1006.1 mb 0.05 in1.3 mm 0.00 in0.0 mm 0.46 in11.7 mm
05:00 PM 52.3°F11.3°C 47.3°F8.5°C 83% 6.2 mph S10.0 kmh S 8.3 mph13.4 kmh 29.70 in1005.8 mb 0.05 in1.3 mm 0.00 in0.0 mm 0.46 in11.7 mm
04:45 PM 51.8°F11.0°C 43.1°F6.2°C 72% 2.8 mph SW4.5 kmh SW 4.5 mph7.2 kmh 29.71 in1006.1 mb 0.05 in1.3 mm 0.04 in1.0 mm 0.46 in11.7 mm
04:30 PM 51.6°F10.9°C 42.2°F5.7°C 70% 11.4 mph WNW18.3 kmh WNW 16.8 mph27.0 kmh 29.72 in1006.4 mb 0.04 in1.0 mm 0.16 in4.1 mm 0.45 in11.4 mm
04:15 PM 55.2°F12.9°C 50.2°F10.1°C 83% 5.0 mph SW8.0 kmh SW 10.7 mph17.2 kmh 29.70 in1005.8 mb 0.00 in0.0 mm 0.00 in0.0 mm 0.41 in10.4 mm
04:00 PM 56.3°F13.5°C 53.7°F12.1°C 91% 7.2 mph SW11.6 kmh SW 10.7 mph17.2 kmh 29.69 in1005.4 mb 0.00 in0.0 mm 0.00 in0.0 mm 0.41 in10.4 mm
03:45 PM 55.0°F12.8°C 52.8°F11.6°C 92% 6.2 mph SW10.0 kmh SW 14.5 mph23.3 kmh 29.70 in1005.8 mb 0.00 in0.0 mm 0.00 in0.0 mm 0.41 in10.4 mm
03:30 PM 55.8°F13.2°C 55.8°F13.2°C 100% 8.8 mph SSW14.2 kmh SSW 13.0 mph20.9 kmh 29.69 in1005.4 mb 0.00 in0.0 mm 0.00 in0.0 mm 0.41 in10.4 mm
03:15 PM 54.1°F12.3°C 54.1°F12.3°C 100% 6.8 mph SSW10.9 kmh SSW 10.7 mph17.2 kmh 29.69 in1005.4 mb 0.00 in0.0 mm 0.00 in0.0 mm 0.41 in10.4 mm
03:00 PM 54.1°F12.3°C 54.1°F12.3°C 100% 8.0 mph WSW12.9 kmh WSW 13.6 mph21.9 kmh 29.69 in1005.4 mb 0.00 in0.0 mm 0.00 in0.0 mm 0.41 in10.4 mm
02:45 PM 54.5°F12.5°C 54.5°F12.5°C 100% 6.2 mph SW10.0 kmh SW 9.2 mph14.8 kmh 29.69 in1005.4 mb 0.00 in0.0 mm 0.00 in0.0 mm 0.41 in10.4 mm
02:30 PM 54.3°F12.4°C 54.3°F12.4°C 100% 6.0 mph WSW9.7 kmh WSW 9.8 mph15.8 kmh 29.69 in1005.4 mb 0.00 in0.0 mm 0.00 in0.0 mm 0.41 in10.4 mm
02:15 PM 54.5°F12.5°C 54.5°F12.5°C 100% 6.4 mph SW10.3 kmh SW 8.3 mph13.4 kmh 29.69 in1005.4 mb 0.00 in0.0 mm 0.00 in0.0 mm 0.41 in10.4 mm
02:00 PM 54.7°F12.6°C 54.7°F12.6°C 100% 6.4 mph SW10.3 kmh SW 9.2 mph14.8 kmh 29.69 in1005.4 mb 0.02 in0.5 mm 0.00 in0.0 mm 0.41 in10.4 mm
01:45 PM 54.3°F12.4°C 54.3°F12.4°C 100% 6.3 mph WSW10.1 kmh WSW 8.3 mph13.4 kmh 29.70 in1005.8 mb 0.07 in1.8 mm 0.00 in0.0 mm 0.41 in10.4 mm
01:30 PM 53.4°F11.9°C 53.4°F11.9°C 100% 3.3 mph WSW5.3 kmh WSW 5.4 mph8.7 kmh 29.70 in1005.8 mb 0.07 in1.8 mm 0.00 in0.0 mm 0.41 in10.4 mm
01:15 PM 53.4°F11.9°C 53.4°F11.9°C 100% 8.8 mph WSW14.2 kmh WSW 13.6 mph21.9 kmh 29.70 in1005.8 mb 0.07 in1.8 mm 0.08 in2.0 mm 0.41 in10.4 mm
01:00 PM 54.1°F12.3°C 54.1°F12.3°C 100% 10.8 mph W17.4 kmh W 18.3 mph29.5 kmh 29.71 in1006.1 mb 0.05 in1.3 mm 0.07 in1.8 mm 0.39 in9.9 mm
12:45 PM 57.2°F14.0°C 57.2°F14.0°C 100% 7.1 mph WSW11.4 kmh WSW 9.8 mph15.8 kmh 29.70 in1005.8 mb 0.00 in0.0 mm 0.00 in0.0 mm 0.34 in8.6 mm
12:30 PM 57.7°F14.3°C 57.8°F14.3°C 100% 7.1 mph SW11.4 kmh SW 11.4 mph18.3 kmh 29.70 in1005.8 mb 0.00 in0.0 mm 0.00 in0.0 mm 0.34 in8.6 mm
12:15 PM 57.0°F13.9°C 57.0°F13.9°C 100% 7.1 mph SSW11.4 kmh SSW 11.4 mph18.3 kmh 29.70 in1005.8 mb 0.00 in0.0 mm 0.00 in0.0 mm 0.34 in8.6 mm
12:00 PM 55.6°F13.1°C 55.6°F13.1°C 100% 8.8 mph SSW14.2 kmh SSW 11.4 mph18.3 kmh 29.71 in1006.1 mb 0.02 in0.5 mm 0.00 in0.0 mm 0.34 in8.6 mm
11:45 AM 55.6°F13.1°C 55.6°F13.1°C 100% 6.7 mph S10.8 kmh S 9.2 mph14.8 kmh 29.71 in1006.1 mb 0.04 in1.0 mm 0.00 in0.0 mm 0.34 in8.6 mm
11:38 AM 54.7°F12.6°C 54.7°F12.6°C 100% 4.1 mph S6.6 kmh S 5.4 mph8.7 kmh 29.72 in1006.4 mb 0.04 in1.0 mm 0.00 in0.0 mm 0.34 in8.6 mm
11:33 AM 54.1°F12.3°C 54.1°F12.3°C 100% 3.4 mph SSW5.5 kmh SSW 4.5 mph7.2 kmh 29.72 in1006.4 mb 0.04 in1.0 mm 0.00 in0.0 mm 0.34 in8.6 mm
11:23 AM 53.1°F11.7°C 53.1°F11.7°C 100% 1.6 mph W2.6 kmh W 3.1 mph5.0 kmh 29.72 in1006.4 mb 0.04 in1.0 mm 0.00 in0.0 mm 0.34 in8.6 mm
11:15 AM 52.5°F11.4°C 52.5°F11.4°C 100% 2.9 mph NW4.7 kmh NW 3.8 mph6.1 kmh 29.72 in1006.4 mb 0.04 in1.0 mm 0.12 in3.0 mm 0.34 in8.6 mm
11:00 AM 52.9°F11.6°C 52.9°F11.6°C 100% 4.3 mph WNW6.9 kmh WNW 7.6 mph12.2 kmh 29.73 in1006.8 mb 0.01 in0.3 mm 0.01 in0.3 mm 0.32 in8.1 mm
10:45 AM 55.4°F13.0°C 55.4°F13.0°C 100% 8.6 mph S13.8 kmh S 12.1 mph19.5 kmh 29.73 in1006.8 mb 0.00 in0.0 mm 0.00 in0.0 mm 0.31 in7.9 mm
10:30 AM 55.9°F13.3°C 56.0°F13.3°C 100% 7.8 mph S12.6 kmh S 9.8 mph15.8 kmh 29.72 in1006.4 mb 0.00 in0.0 mm 0.00 in0.0 mm 0.31 in7.9 mm
10:15 AM 56.1°F13.4°C 56.1°F13.4°C 100% 3.9 mph SSW6.3 kmh SSW 5.4 mph8.7 kmh 29.72 in1006.4 mb 0.00 in0.0 mm 0.00 in0.0 mm 0.31 in7.9 mm
10:00 AM 56.1°F13.4°C 56.1°F13.4°C 100% 5.3 mph S8.5 kmh S 8.3 mph13.4 kmh 29.72 in1006.4 mb 0.00 in0.0 mm 0.00 in0.0 mm 0.31 in7.9 mm
09:45 AM 55.9°F13.3°C 56.0°F13.3°C 100% 7.6 mph S12.2 kmh S 10.7 mph17.2 kmh 29.73 in1006.8 mb 0.00 in0.0 mm 0.00 in0.0 mm 0.31 in7.9 mm
09:30 AM 54.9°F12.7°C 54.9°F12.7°C 100% 5.8 mph S9.3 kmh S 8.3 mph13.4 kmh 29.73 in1006.8 mb 0.00 in0.0 mm 0.00 in0.0 mm 0.31 in7.9 mm
09:15 AM 55.0°F12.8°C 55.0°F12.8°C 100% 4.4 mph S7.1 kmh S 6.0 mph9.7 kmh 29.73 in1006.8 mb 0.00 in0.0 mm 0.00 in0.0 mm 0.31 in7.9 mm
09:00 AM 54.9°F12.7°C 54.9°F12.7°C 100% 2.7 mph S4.3 kmh S 3.8 mph6.1 kmh 29.73 in1006.8 mb 0.00 in0.0 mm 0.00 in0.0 mm 0.31 in7.9 mm
08:45 AM 54.5°F12.5°C 54.5°F12.5°C 100% 3.6 mph S5.8 kmh S 4.5 mph7.2 kmh 29.73 in1006.8 mb 0.00 in0.0 mm 0.00 in0.0 mm 0.31 in7.9 mm
08:30 AM 54.1°F12.3°C 54.1°F12.3°C 100% 4.8 mph S7.7 kmh S 6.0 mph9.7 kmh 29.73 in1006.8 mb 0.00 in0.0 mm 0.00 in0.0 mm 0.31 in7.9 mm
08:15 AM 54.5°F12.5°C 54.5°F12.5°C 100% 4.3 mph S6.9 kmh S 5.4 mph8.7 kmh 29.73 in1006.8 mb 0.00 in0.0 mm 0.00 in0.0 mm 0.31 in7.9 mm
08:00 AM 54.3°F12.4°C 54.3°F12.4°C 100% 3.4 mph S5.5 kmh S 3.8 mph6.1 kmh 29.73 in1006.8 mb 0.00 in0.0 mm 0.00 in0.0 mm 0.31 in7.9 mm
07:45 AM 53.8°F12.1°C 53.8°F12.1°C 100% 2.5 mph S4.0 kmh S 3.1 mph5.0 kmh 29.73 in1006.8 mb 0.00 in0.0 mm 0.00 in0.0 mm 0.31 in7.9 mm
07:30 AM 52.7°F11.5°C 52.7°F11.5°C 100% 2.1 mph S3.4 kmh S 3.1 mph5.0 kmh 29.73 in1006.8 mb 0.00 in0.0 mm 0.00 in0.0 mm 0.31 in7.9 mm
07:15 AM 52.5°F11.4°C 52.5°F11.4°C 100% 3.1 mph S5.0 kmh S 3.8 mph6.1 kmh 29.73 in1006.8 mb 0.00 in0.0 mm 0.00 in0.0 mm 0.31 in7.9 mm
07:00 AM 52.7°F11.5°C 52.7°F11.5°C 100% 2.2 mph S3.5 kmh S 3.1 mph5.0 kmh 29.74 in1007.1 mb 0.00 in0.0 mm 0.00 in0.0 mm 0.31 in7.9 mm
06:45 AM 52.3°F11.3°C 52.3°F11.3°C 100% 1.8 mph S2.9 kmh S 2.2 mph3.5 kmh 29.74 in1007.1 mb 0.00 in0.0 mm 0.00 in0.0 mm 0.31 in7.9 mm
06:30 AM 51.8°F11.0°C 51.8°F11.0°C 100% Calm Calm -- 29.74 in1007.1 mb 0.00 in0.0 mm 0.00 in0.0 mm 0.31 in7.9 mm
06:15 AM 51.6°F10.9°C 51.6°F10.9°C 100% Calm Calm -- 29.74 in1007.1 mb 0.01 in0.3 mm 0.00 in0.0 mm 0.31 in7.9 mm
06:00 AM 51.6°F10.9°C 51.6°F10.9°C 100% Calm Calm -- 29.74 in1007.1 mb 0.01 in0.3 mm 0.00 in0.0 mm 0.31 in7.9 mm
05:45 AM 51.6°F10.9°C 51.6°F10.9°C 100% Calm Calm -- 29.74 in1007.1 mb 0.01 in0.3 mm 0.00 in0.0 mm 0.31 in7.9 mm
05:30 AM 51.4°F10.8°C 51.2°F10.7°C 99% 0.1 mph SW0.2 kmh SW 0.7 mph1.1 kmh 29.74 in1007.1 mb 0.02 in0.5 mm 0.00 in0.0 mm 0.31 in7.9 mm
05:15 AM 51.4°F10.8°C 50.3°F10.2°C 96% Calm Calm -- 29.75 in1007.5 mb 0.02 in0.5 mm 0.00 in0.0 mm 0.30 in7.6 mm
05:00 AM 51.4°F10.8°C 49.8°F9.9°C 94% 0.2 mph SW0.3 kmh SW 0.7 mph1.1 kmh 29.75 in1007.5 mb 0.02 in0.5 mm 0.00 in0.0 mm 0.30 in7.6 mm
04:45 AM 51.4°F10.8°C 49.5°F9.7°C 93% 0.4 mph NW0.6 kmh NW 0.7 mph1.1 kmh 29.75 in1007.5 mb 0.02 in0.5 mm 0.04 in1.0 mm 0.30 in7.6 mm
04:30 AM 51.6°F10.9°C 49.1°F9.5°C 91% 0.4 mph NW0.6 kmh NW 0.7 mph1.1 kmh 29.75 in1007.5 mb 0.01 in0.3 mm 0.00 in0.0 mm 0.28 in7.1 mm
04:15 AM 51.6°F10.9°C 48.5°F9.2°C 89% 0.4 mph SW0.6 kmh SW 1.6 mph2.6 kmh 29.75 in1007.5 mb 0.01 in0.3 mm 0.00 in0.0 mm 0.27 in6.9 mm
04:00 AM 51.6°F10.9°C 47.9°F8.8°C 87% 0.7 mph NW1.1 kmh NW 2.2 mph3.5 kmh 29.75 in1007.5 mb 0.05 in1.3 mm 0.00 in0.0 mm 0.27 in6.9 mm
03:45 AM 51.8°F11.0°C 47.1°F8.4°C 84% 2.8 mph WSW4.5 kmh WSW 3.8 mph6.1 kmh 29.76 in1007.8 mb 0.11 in2.8 mm 0.00 in0.0 mm 0.27 in6.9 mm
03:30 AM 52.0°F11.1°C 46.7°F8.2°C 82% 3.6 mph WSW5.8 kmh WSW 5.4 mph8.7 kmh 29.76 in1007.8 mb 0.27 in6.9 mm 0.04 in1.0 mm 0.27 in6.9 mm
03:15 AM 52.3°F11.3°C 46.4°F8.0°C 80% 5.0 mph SW8.0 kmh SW 8.3 mph13.4 kmh 29.77 in1008.1 mb 0.26 in6.6 mm 0.20 in5.1 mm 0.26 in6.6 mm
03:00 AM 52.5°F11.4°C 45.9°F7.7°C 78% 3.9 mph SW6.3 kmh SW 6.0 mph9.7 kmh 29.78 in1008.5 mb 0.21 in5.3 mm 0.08 in2.0 mm 0.21 in5.3 mm
02:45 AM 52.5°F11.4°C 45.9°F7.7°C 78% 6.2 mph S10.0 kmh S 15.2 mph24.5 kmh 29.78 in1008.5 mb 0.15 in3.8 mm 0.60 in15.2 mm 0.15 in3.8 mm
02:30 AM 51.6°F10.9°C 44.3°F6.8°C 76% 2.2 mph S3.5 kmh S 5.4 mph8.7 kmh 29.78 in1008.5 mb 0.00 in0.0 mm 0.00 in0.0 mm 0.00 in0.0 mm
02:15 AM 50.5°F10.3°C 43.6°F6.4°C 77% Calm Calm -- 29.78 in1008.5 mb 0.00 in0.0 mm 0.00 in0.0 mm 0.00 in0.0 mm
02:00 AM 50.0°F10.0°C 43.1°F6.2°C 77% Calm Calm -- 29.78 in1008.5 mb 0.00 in0.0 mm 0.00 in0.0 mm 0.00 in0.0 mm
01:45 AM 49.8°F9.9°C 43.2°F6.2°C 78% Calm Calm -- 29.79 in1008.8 mb 0.00 in0.0 mm 0.00 in0.0 mm 0.00 in0.0 mm
01:30 AM 49.6°F9.8°C 43.1°F6.2°C 78% Calm Calm -- 29.79 in1008.8 mb 0.00 in0.0 mm 0.00 in0.0 mm 0.00 in0.0 mm
01:15 AM 49.6°F9.8°C 43.4°F6.3°C 79% Calm Calm -- 29.80 in1009.1 mb 0.00 in0.0 mm 0.00 in0.0 mm 0.00 in0.0 mm
01:00 AM 49.6°F9.8°C 43.7°F6.5°C 80% Calm Calm -- 29.80 in1009.1 mb 0.00 in0.0 mm 0.00 in0.0 mm 0.00 in0.0 mm
12:45 AM 49.6°F9.8°C 44.1°F6.7°C 81% Calm Calm -- 29.81 in1009.5 mb 0.00 in0.0 mm 0.00 in0.0 mm 0.00 in0.0 mm
12:30 AM 49.8°F9.9°C 44.2°F6.8°C 81% Calm Calm -- 29.81 in1009.5 mb 0.00 in0.0 mm 0.00 in0.0 mm 0.00 in0.0 mm
12:15 AM 50.0°F10.0°C 44.7°F7.1°C 82% Calm Calm -- 29.82 in1009.8 mb 0.00 in0.0 mm 0.00 in0.0 mm 0.00 in0.0 mm
12:00 AM 50.2°F10.1°C 44.9°F7.2°C 82% Calm Calm -- 29.83 in1010.2 mb 0.00 in0.0 mm 0.00 in0.0 mm 0.00 in0.0 mm